sensor_id;sensor_type;location;lat;lon;timestamp;P1;durP1;ratioP1;P2;durP2;ratioP2
18190;SDS011;47004;51.366;12.348;2023-07-31T00:01:23;5.20;;;1.57;;
18190;SDS011;47004;51.366;12.348;2023-07-31T00:03:27;7.10;;;2.37;;
18190;SDS011;47004;51.366;12.348;2023-07-31T00:05:29;3.30;;;1.70;;
18190;SDS011;47004;51.366;12.348;2023-07-31T00:07:31;4.67;;;1.73;;
18190;SDS011;47004;51.366;12.348;2023-07-31T00:09:33;5.67;;;1.60;;
18190;SDS011;47004;51.366;12.348;2023-07-31T00:11:35;6.47;;;1.73;;
18190;SDS011;47004;51.366;12.348;2023-07-31T00:13:38;3.00;;;1.37;;
18190;SDS011;47004;51.366;12.348;2023-07-31T00:15:42;5.70;;;1.60;;
18190;SDS011;47004;51.366;12.348;2023-07-31T00:17:43;5.30;;;2.00;;
18190;SDS011;47004;51.366;12.348;2023-07-31T00:19:45;11.57;;;2.00;;
18190;SDS011;47004;51.366;12.348;2023-07-31T00:21:49;6.27;;;1.87;;
18190;SDS011;47004;51.366;12.348;2023-07-31T00:23:51;4.67;;;1.50;;
18190;SDS011;47004;51.366;12.348;2023-07-31T00:25:53;4.03;;;1.70;;
18190;SDS011;47004;51.366;12.348;2023-07-31T00:27:54;3.43;;;1.47;;
18190;SDS011;47004;51.366;12.348;2023-07-31T00:29:56;3.90;;;1.80;;
18190;SDS011;47004;51.366;12.348;2023-07-31T00:32:00;5.57;;;2.00;;
18190;SDS011;47004;51.366;12.348;2023-07-31T00:34:03;6.53;;;1.87;;
18190;SDS011;47004;51.366;12.348;2023-07-31T00:36:05;5.00;;;1.73;;
18190;SDS011;47004;51.366;12.348;2023-07-31T00:38:07;5.80;;;1.63;;
18190;SDS011;47004;51.366;12.348;2023-07-31T00:40:09;10.23;;;1.50;;
18190;SDS011;47004;51.366;12.348;2023-07-31T00:42:11;4.90;;;1.50;;
18190;SDS011;47004;51.366;12.348;2023-07-31T00:44:13;4.60;;;1.77;;
18190;SDS011;47004;51.366;12.348;2023-07-31T00:46:15;5.13;;;1.80;;
18190;SDS011;47004;51.366;12.348;2023-07-31T00:48:18;5.07;;;1.73;;
18190;SDS011;47004;51.366;12.348;2023-07-31T00:50:20;3.73;;;1.70;;
18190;SDS011;47004;51.366;12.348;2023-07-31T00:52:23;8.20;;;1.80;;
18190;SDS011;47004;51.366;12.348;2023-07-31T00:54:25;9.20;;;1.87;;
18190;SDS011;47004;51.366;12.348;2023-07-31T00:56:27;4.63;;;1.70;;
18190;SDS011;47004;51.366;12.348;2023-07-31T00:58:29;2.83;;;1.40;;
18190;SDS011;47004;51.366;12.348;2023-07-31T01:00:31;10.63;;;2.40;;
18190;SDS011;47004;51.366;12.348;2023-07-31T01:02:33;3.87;;;1.57;;
18190;SDS011;47004;51.366;12.348;2023-07-31T01:04:37;5.70;;;2.00;;
18190;SDS011;47004;51.366;12.348;2023-07-31T01:06:40;4.53;;;1.63;;
18190;SDS011;47004;51.366;12.348;2023-07-31T01:08:51;6.93;;;1.83;;
18190;SDS011;47004;51.366;12.348;2023-07-31T01:11:04;6.10;;;1.70;;
18190;SDS011;47004;51.366;12.348;2023-07-31T01:13:11;2.80;;;1.50;;
18190;SDS011;47004;51.366;12.348;2023-07-31T01:15:15;5.00;;;1.80;;
18190;SDS011;47004;51.366;12.348;2023-07-31T01:17:18;5.43;;;1.60;;
18190;SDS011;47004;51.366;12.348;2023-07-31T01:19:21;4.20;;;1.63;;
18190;SDS011;47004;51.366;12.348;2023-07-31T01:21:33;4.57;;;1.60;;
18190;SDS011;47004;51.366;12.348;2023-07-31T01:26:26;5.07;;;1.60;;
18190;SDS011;47004;51.366;12.348;2023-07-31T01:28:37;6.93;;;1.33;;
18190;SDS011;47004;51.366;12.348;2023-07-31T01:30:46;7.27;;;1.50;;
18190;SDS011;47004;51.366;12.348;2023-07-31T01:32:49;5.00;;;1.50;;
18190;SDS011;47004;51.366;12.348;2023-07-31T01:34:54;5.03;;;1.80;;
18190;SDS011;47004;51.366;12.348;2023-07-31T01:36:58;6.10;;;1.40;;
18190;SDS011;47004;51.366;12.348;2023-07-31T01:39:00;2.37;;;1.33;;
18190;SDS011;47004;51.366;12.348;2023-07-31T01:41:02;5.20;;;1.83;;
18190;SDS011;47004;51.366;12.348;2023-07-31T01:43:05;4.53;;;1.80;;
18190;SDS011;47004;51.366;12.348;2023-07-31T01:45:08;3.67;;;1.30;;
18190;SDS011;47004;51.366;12.348;2023-07-31T01:47:10;5.70;;;1.80;;
18190;SDS011;47004;51.366;12.348;2023-07-31T01:49:12;5.33;;;1.57;;
18190;SDS011;47004;51.366;12.348;2023-07-31T01:51:13;6.10;;;1.70;;
18190;SDS011;47004;51.366;12.348;2023-07-31T01:53:15;4.47;;;1.67;;
18190;SDS011;47004;51.366;12.348;2023-07-31T01:55:17;4.23;;;1.80;;
18190;SDS011;47004;51.366;12.348;2023-07-31T01:57:19;4.57;;;1.80;;
18190;SDS011;47004;51.366;12.348;2023-07-31T01:59:22;4.60;;;1.40;;
18190;SDS011;47004;51.366;12.348;2023-07-31T02:01:24;3.43;;;1.73;;
18190;SDS011;47004;51.366;12.348;2023-07-31T02:03:26;2.77;;;1.50;;
18190;SDS011;47004;51.366;12.348;2023-07-31T02:05:27;5.30;;;1.77;;
18190;SDS011;47004;51.366;12.348;2023-07-31T02:07:28;3.53;;;1.50;;
18190;SDS011;47004;51.366;12.348;2023-07-31T02:09:30;6.20;;;2.00;;
18190;SDS011;47004;51.366;12.348;2023-07-31T02:11:32;6.73;;;1.93;;
18190;SDS011;47004;51.366;12.348;2023-07-31T02:13:34;3.47;;;1.57;;
18190;SDS011;47004;51.366;12.348;2023-07-31T02:15:37;6.13;;;1.80;;
18190;SDS011;47004;51.366;12.348;2023-07-31T02:17:38;5.43;;;1.80;;
18190;SDS011;47004;51.366;12.348;2023-07-31T02:19:40;5.17;;;1.23;;
18190;SDS011;47004;51.366;12.348;2023-07-31T02:21:41;6.33;;;2.97;;
18190;SDS011;47004;51.366;12.348;2023-07-31T02:23:43;5.33;;;2.10;;
18190;SDS011;47004;51.366;12.348;2023-07-31T02:25:45;4.57;;;1.80;;
18190;SDS011;47004;51.366;12.348;2023-07-31T02:27:47;4.80;;;1.80;;
18190;SDS011;47004;51.366;12.348;2023-07-31T02:29:49;2.67;;;1.50;;
18190;SDS011;47004;51.366;12.348;2023-07-31T02:31:51;3.50;;;1.70;;
18190;SDS011;47004;51.366;12.348;2023-07-31T02:33:53;4.93;;;1.80;;
18190;SDS011;47004;51.366;12.348;2023-07-31T02:35:55;2.67;;;1.87;;
18190;SDS011;47004;51.366;12.348;2023-07-31T02:37:57;5.13;;;1.87;;
18190;SDS011;47004;51.366;12.348;2023-07-31T02:39:59;4.77;;;1.80;;
18190;SDS011;47004;51.366;12.348;2023-07-31T02:42:01;2.77;;;1.80;;
18190;SDS011;47004;51.366;12.348;2023-07-31T02:44:03;4.03;;;1.83;;
18190;SDS011;47004;51.366;12.348;2023-07-31T02:46:05;3.07;;;1.80;;
18190;SDS011;47004;51.366;12.348;2023-07-31T02:48:08;5.63;;;1.63;;
18190;SDS011;47004;51.366;12.348;2023-07-31T02:50:10;5.93;;;1.80;;
18190;SDS011;47004;51.366;12.348;2023-07-31T02:52:12;4.70;;;2.03;;
18190;SDS011;47004;51.366;12.348;2023-07-31T02:54:14;5.67;;;1.97;;
18190;SDS011;47004;51.366;12.348;2023-07-31T02:56:16;4.63;;;2.10;;
18190;SDS011;47004;51.366;12.348;2023-07-31T02:58:17;7.17;;;2.33;;
18190;SDS011;47004;51.366;12.348;2023-07-31T03:00:19;4.53;;;2.30;;
18190;SDS011;47004;51.366;12.348;2023-07-31T03:02:22;6.33;;;2.60;;
18190;SDS011;47004;51.366;12.348;2023-07-31T03:04:26;6.90;;;2.20;;
18190;SDS011;47004;51.366;12.348;2023-07-31T03:06:27;4.43;;;2.00;;
18190;SDS011;47004;51.366;12.348;2023-07-31T03:08:29;5.03;;;2.00;;
18190;SDS011;47004;51.366;12.348;2023-07-31T03:10:31;5.77;;;1.80;;
18190;SDS011;47004;51.366;12.348;2023-07-31T03:12:33;9.70;;;2.70;;
18190;SDS011;47004;51.366;12.348;2023-07-31T03:14:35;5.47;;;1.97;;
18190;SDS011;47004;51.366;12.348;2023-07-31T03:16:37;5.73;;;2.03;;
18190;SDS011;47004;51.366;12.348;2023-07-31T03:18:38;6.10;;;1.90;;
18190;SDS011;47004;51.366;12.348;2023-07-31T03:20:43;4.83;;;1.80;;
18190;SDS011;47004;51.366;12.348;2023-07-31T03:22:45;10.07;;;1.90;;
18190;SDS011;47004;51.366;12.348;2023-07-31T03:24:46;5.17;;;1.97;;
18190;SDS011;47004;51.366;12.348;2023-07-31T03:26:48;6.23;;;1.90;;
18190;SDS011;47004;51.366;12.348;2023-07-31T03:28:50;4.93;;;1.90;;
18190;SDS011;47004;51.366;12.348;2023-07-31T03:30:52;6.03;;;2.27;;
18190;SDS011;47004;51.366;12.348;2023-07-31T03:32:54;3.87;;;1.47;;
18190;SDS011;47004;51.366;12.348;2023-07-31T03:34:57;5.20;;;2.17;;
18190;SDS011;47004;51.366;12.348;2023-07-31T03:37:01;6.43;;;1.90;;
18190;SDS011;47004;51.366;12.348;2023-07-31T03:39:05;4.50;;;1.73;;
18190;SDS011;47004;51.366;12.348;2023-07-31T03:41:06;6.00;;;2.50;;
18190;SDS011;47004;51.366;12.348;2023-07-31T03:43:07;4.97;;;2.17;;
18190;SDS011;47004;51.366;12.348;2023-07-31T03:45:09;3.60;;;1.70;;
18190;SDS011;47004;51.366;12.348;2023-07-31T03:47:11;5.50;;;2.00;;
18190;SDS011;47004;51.366;12.348;2023-07-31T03:49:12;8.43;;;2.43;;
18190;SDS011;47004;51.366;12.348;2023-07-31T03:51:14;4.13;;;2.07;;
18190;SDS011;47004;51.366;12.348;2023-07-31T03:53:18;5.90;;;1.80;;
18190;SDS011;47004;51.366;12.348;2023-07-31T03:55:19;4.90;;;1.80;;
18190;SDS011;47004;51.366;12.348;2023-07-31T03:57:21;5.47;;;2.03;;
18190;SDS011;47004;51.366;12.348;2023-07-31T03:59:23;5.20;;;1.90;;
18190;SDS011;47004;51.366;12.348;2023-07-31T04:01:25;6.10;;;1.90;;
18190;SDS011;47004;51.366;12.348;2023-07-31T04:03:28;6.87;;;1.90;;
18190;SDS011;47004;51.366;12.348;2023-07-31T04:05:29;4.47;;;1.90;;
18190;SDS011;47004;51.366;12.348;2023-07-31T04:07:31;7.43;;;2.20;;
18190;SDS011;47004;51.366;12.348;2023-07-31T04:09:34;9.33;;;2.13;;
18190;SDS011;47004;51.366;12.348;2023-07-31T04:11:36;8.07;;;2.57;;
18190;SDS011;47004;51.366;12.348;2023-07-31T04:13:39;9.13;;;2.00;;
18190;SDS011;47004;51.366;12.348;2023-07-31T04:15:41;7.87;;;2.27;;
18190;SDS011;47004;51.366;12.348;2023-07-31T04:17:43;5.50;;;2.20;;
18190;SDS011;47004;51.366;12.348;2023-07-31T04:19:45;5.47;;;2.00;;
18190;SDS011;47004;51.366;12.348;2023-07-31T04:21:46;5.80;;;2.07;;
18190;SDS011;47004;51.366;12.348;2023-07-31T04:23:48;5.57;;;2.17;;
18190;SDS011;47004;51.366;12.348;2023-07-31T04:25:51;5.17;;;2.20;;
18190;SDS011;47004;51.366;12.348;2023-07-31T04:27:52;7.03;;;2.40;;
18190;SDS011;47004;51.366;12.348;2023-07-31T04:29:54;5.23;;;2.20;;
18190;SDS011;47004;51.366;12.348;2023-07-31T04:31:56;2.77;;;1.73;;
18190;SDS011;47004;51.366;12.348;2023-07-31T04:33:58;6.43;;;2.10;;
18190;SDS011;47004;51.366;12.348;2023-07-31T04:36:00;7.30;;;2.97;;
18190;SDS011;47004;51.366;12.348;2023-07-31T04:38:02;6.77;;;2.20;;
18190;SDS011;47004;51.366;12.348;2023-07-31T04:40:04;7.47;;;2.73;;
18190;SDS011;47004;51.366;12.348;2023-07-31T04:42:08;4.83;;;2.43;;
18190;SDS011;47004;51.366;12.348;2023-07-31T04:44:10;5.50;;;2.30;;
18190;SDS011;47004;51.366;12.348;2023-07-31T04:46:12;6.90;;;2.53;;
18190;SDS011;47004;51.366;12.348;2023-07-31T04:48:14;9.20;;;3.73;;
18190;SDS011;47004;51.366;12.348;2023-07-31T04:50:15;5.80;;;2.40;;
18190;SDS011;47004;51.366;12.348;2023-07-31T04:52:17;8.90;;;2.43;;
18190;SDS011;47004;51.366;12.348;2023-07-31T04:54:19;7.77;;;2.90;;
18190;SDS011;47004;51.366;12.348;2023-07-31T04:56:19;7.70;;;2.57;;
18190;SDS011;47004;51.366;12.348;2023-07-31T04:58:23;7.27;;;2.30;;
18190;SDS011;47004;51.366;12.348;2023-07-31T05:00:25;5.43;;;2.80;;
18190;SDS011;47004;51.366;12.348;2023-07-31T05:02:26;8.10;;;2.57;;
18190;SDS011;47004;51.366;12.348;2023-07-31T05:04:28;8.43;;;2.83;;
18190;SDS011;47004;51.366;12.348;2023-07-31T05:06:30;10.87;;;2.73;;
18190;SDS011;47004;51.366;12.348;2023-07-31T05:08:32;10.33;;;3.20;;
18190;SDS011;47004;51.366;12.348;2023-07-31T05:10:34;8.93;;;2.93;;
18190;SDS011;47004;51.366;12.348;2023-07-31T05:12:36;10.47;;;2.83;;
18190;SDS011;47004;51.366;12.348;2023-07-31T05:14:39;8.17;;;2.70;;
18190;SDS011;47004;51.366;12.348;2023-07-31T05:16:41;10.60;;;3.40;;
18190;SDS011;47004;51.366;12.348;2023-07-31T05:18:43;6.53;;;3.00;;
18190;SDS011;47004;51.366;12.348;2023-07-31T05:20:45;8.83;;;3.50;;
18190;SDS011;47004;51.366;12.348;2023-07-31T05:22:47;11.50;;;3.30;;
18190;SDS011;47004;51.366;12.348;2023-07-31T05:24:48;9.73;;;4.63;;
18190;SDS011;47004;51.366;12.348;2023-07-31T05:26:50;7.30;;;3.40;;
18190;SDS011;47004;51.366;12.348;2023-07-31T05:28:52;8.57;;;3.30;;
18190;SDS011;47004;51.366;12.348;2023-07-31T05:30:59;9.83;;;3.43;;
18190;SDS011;47004;51.366;12.348;2023-07-31T05:33:01;5.50;;;3.53;;
18190;SDS011;47004;51.366;12.348;2023-07-31T05:35:03;7.93;;;3.37;;
18190;SDS011;47004;51.366;12.348;2023-07-31T05:37:05;8.53;;;3.57;;
18190;SDS011;47004;51.366;12.348;2023-07-31T05:39:07;7.60;;;3.00;;
18190;SDS011;47004;51.366;12.348;2023-07-31T05:41:09;8.97;;;3.47;;
18190;SDS011;47004;51.366;12.348;2023-07-31T05:43:11;6.77;;;3.63;;
18190;SDS011;47004;51.366;12.348;2023-07-31T05:45:12;18.40;;;3.77;;
18190;SDS011;47004;51.366;12.348;2023-07-31T05:47:16;14.43;;;3.30;;
18190;SDS011;47004;51.366;12.348;2023-07-31T05:49:17;8.97;;;3.70;;
18190;SDS011;47004;51.366;12.348;2023-07-31T05:51:19;9.63;;;3.63;;
18190;SDS011;47004;51.366;12.348;2023-07-31T05:53:21;9.43;;;3.50;;
18190;SDS011;47004;51.366;12.348;2023-07-31T05:55:23;6.93;;;3.20;;
18190;SDS011;47004;51.366;12.348;2023-07-31T05:57:26;10.70;;;3.30;;
18190;SDS011;47004;51.366;12.348;2023-07-31T05:59:28;9.70;;;3.77;;
18190;SDS011;47004;51.366;12.348;2023-07-31T06:01:33;18.70;;;3.77;;
18190;SDS011;47004;51.366;12.348;2023-07-31T06:03:36;6.47;;;3.27;;
18190;SDS011;47004;51.366;12.348;2023-07-31T06:05:38;13.30;;;3.30;;
18190;SDS011;47004;51.366;12.348;2023-07-31T06:07:40;7.97;;;3.53;;
18190;SDS011;47004;51.366;12.348;2023-07-31T06:09:41;7.93;;;3.57;;
18190;SDS011;47004;51.366;12.348;2023-07-31T06:11:43;8.87;;;3.50;;
18190;SDS011;47004;51.366;12.348;2023-07-31T06:13:45;7.27;;;3.37;;
18190;SDS011;47004;51.366;12.348;2023-07-31T06:15:48;9.27;;;3.90;;
18190;SDS011;47004;51.366;12.348;2023-07-31T06:17:50;6.80;;;3.60;;
18190;SDS011;47004;51.366;12.348;2023-07-31T06:19:54;9.77;;;3.67;;
18190;SDS011;47004;51.366;12.348;2023-07-31T06:21:55;9.37;;;3.80;;
18190;SDS011;47004;51.366;12.348;2023-07-31T06:23:56;11.53;;;4.03;;
18190;SDS011;47004;51.366;12.348;2023-07-31T06:25:58;11.97;;;3.60;;
18190;SDS011;47004;51.366;12.348;2023-07-31T06:28:00;8.87;;;3.50;;
18190;SDS011;47004;51.366;12.348;2023-07-31T06:30:02;10.47;;;3.70;;
18190;SDS011;47004;51.366;12.348;2023-07-31T06:32:05;9.57;;;3.47;;
18190;SDS011;47004;51.366;12.348;2023-07-31T06:34:07;9.47;;;3.97;;
18190;SDS011;47004;51.366;12.348;2023-07-31T06:36:10;8.27;;;3.40;;
18190;SDS011;47004;51.366;12.348;2023-07-31T06:38:12;7.40;;;3.07;;
18190;SDS011;47004;51.366;12.348;2023-07-31T06:40:14;8.60;;;3.30;;
18190;SDS011;47004;51.366;12.348;2023-07-31T06:42:16;7.70;;;3.60;;
18190;SDS011;47004;51.366;12.348;2023-07-31T06:44:18;6.70;;;3.03;;
18190;SDS011;47004;51.366;12.348;2023-07-31T06:46:20;12.00;;;3.33;;
18190;SDS011;47004;51.366;12.348;2023-07-31T06:48:22;7.80;;;2.73;;
18190;SDS011;47004;51.366;12.348;2023-07-31T06:50:24;7.47;;;2.97;;
18190;SDS011;47004;51.366;12.348;2023-07-31T06:52:26;13.23;;;3.47;;
18190;SDS011;47004;51.366;12.348;2023-07-31T06:54:28;8.63;;;3.10;;
18190;SDS011;47004;51.366;12.348;2023-07-31T06:56:30;8.93;;;3.00;;
18190;SDS011;47004;51.366;12.348;2023-07-31T06:58:32;6.20;;;2.70;;
18190;SDS011;47004;51.366;12.348;2023-07-31T07:00:34;9.07;;;2.80;;
18190;SDS011;47004;51.366;12.348;2023-07-31T07:02:36;5.80;;;2.67;;
18190;SDS011;47004;51.366;12.348;2023-07-31T07:04:38;10.93;;;2.73;;
18190;SDS011;47004;51.366;12.348;2023-07-31T07:06:39;11.70;;;2.53;;
18190;SDS011;47004;51.366;12.348;2023-07-31T07:08:43;5.50;;;2.63;;
18190;SDS011;47004;51.366;12.348;2023-07-31T07:10:45;7.93;;;2.70;;
18190;SDS011;47004;51.366;12.348;2023-07-31T07:12:48;6.50;;;2.60;;
18190;SDS011;47004;51.366;12.348;2023-07-31T07:14:50;8.10;;;2.60;;
18190;SDS011;47004;51.366;12.348;2023-07-31T07:16:52;8.00;;;2.87;;
18190;SDS011;47004;51.366;12.348;2023-07-31T07:18:54;7.67;;;3.20;;
18190;SDS011;47004;51.366;12.348;2023-07-31T07:20:56;12.07;;;5.27;;
18190;SDS011;47004;51.366;12.348;2023-07-31T07:22:58;9.43;;;2.90;;
18190;SDS011;47004;51.366;12.348;2023-07-31T07:25:01;6.53;;;2.67;;
18190;SDS011;47004;51.366;12.348;2023-07-31T07:27:04;6.23;;;2.37;;
18190;SDS011;47004;51.366;12.348;2023-07-31T07:29:06;7.80;;;2.40;;
18190;SDS011;47004;51.366;12.348;2023-07-31T07:31:08;4.53;;;2.30;;
18190;SDS011;47004;51.366;12.348;2023-07-31T07:33:10;6.77;;;2.37;;
18190;SDS011;47004;51.366;12.348;2023-07-31T07:35:12;9.17;;;2.40;;
18190;SDS011;47004;51.366;12.348;2023-07-31T07:37:14;6.97;;;2.70;;
18190;SDS011;47004;51.366;12.348;2023-07-31T07:39:15;3.37;;;2.10;;
18190;SDS011;47004;51.366;12.348;2023-07-31T07:41:18;4.90;;;2.40;;
18190;SDS011;47004;51.366;12.348;2023-07-31T07:43:20;5.10;;;2.80;;
18190;SDS011;47004;51.366;12.348;2023-07-31T07:45:22;7.27;;;2.53;;
18190;SDS011;47004;51.366;12.348;2023-07-31T07:47:24;8.53;;;2.77;;
18190;SDS011;47004;51.366;12.348;2023-07-31T07:49:26;5.13;;;2.23;;
18190;SDS011;47004;51.366;12.348;2023-07-31T07:51:27;5.37;;;2.43;;
18190;SDS011;47004;51.366;12.348;2023-07-31T07:53:31;5.90;;;2.33;;
18190;SDS011;47004;51.366;12.348;2023-07-31T07:55:33;5.63;;;2.60;;
18190;SDS011;47004;51.366;12.348;2023-07-31T07:57:37;5.00;;;2.50;;
18190;SDS011;47004;51.366;12.348;2023-07-31T07:59:40;6.83;;;2.37;;
18190;SDS011;47004;51.366;12.348;2023-07-31T08:01:42;9.23;;;2.60;;
18190;SDS011;47004;51.366;12.348;2023-07-31T08:03:44;5.27;;;2.23;;
18190;SDS011;47004;51.366;12.348;2023-07-31T08:05:46;11.93;;;2.93;;
18190;SDS011;47004;51.366;12.348;2023-07-31T08:07:48;5.40;;;2.37;;
18190;SDS011;47004;51.366;12.348;2023-07-31T08:09:50;8.87;;;2.67;;
18190;SDS011;47004;51.366;12.348;2023-07-31T08:11:52;6.97;;;2.87;;
18190;SDS011;47004;51.366;12.348;2023-07-31T08:13:56;7.33;;;2.77;;
18190;SDS011;47004;51.366;12.348;2023-07-31T08:15:56;6.77;;;2.37;;
18190;SDS011;47004;51.366;12.348;2023-07-31T08:17:58;4.97;;;2.60;;
18190;SDS011;47004;51.366;12.348;2023-07-31T08:20:00;5.77;;;2.30;;
18190;SDS011;47004;51.366;12.348;2023-07-31T08:22:03;5.40;;;2.27;;
18190;SDS011;47004;51.366;12.348;2023-07-31T08:24:04;4.27;;;2.20;;
18190;SDS011;47004;51.366;12.348;2023-07-31T08:26:07;4.83;;;1.97;;
18190;SDS011;47004;51.366;12.348;2023-07-31T08:28:15;8.20;;;2.60;;
18190;SDS011;47004;51.366;12.348;2023-07-31T08:30:18;6.17;;;2.50;;
18190;SDS011;47004;51.366;12.348;2023-07-31T08:32:20;6.97;;;2.80;;
18190;SDS011;47004;51.366;12.348;2023-07-31T08:34:22;4.50;;;2.17;;
18190;SDS011;47004;51.366;12.348;2023-07-31T08:36:24;6.63;;;2.50;;
18190;SDS011;47004;51.366;12.348;2023-07-31T08:38:26;8.13;;;2.50;;
18190;SDS011;47004;51.366;12.348;2023-07-31T08:40:27;7.80;;;2.40;;
18190;SDS011;47004;51.366;12.348;2023-07-31T08:42:30;8.83;;;2.80;;
18190;SDS011;47004;51.366;12.348;2023-07-31T08:44:31;5.03;;;2.40;;
18190;SDS011;47004;51.366;12.348;2023-07-31T08:46:36;8.10;;;2.10;;
18190;SDS011;47004;51.366;12.348;2023-07-31T08:48:38;8.47;;;2.63;;
18190;SDS011;47004;51.366;12.348;2023-07-31T08:50:43;6.00;;;2.10;;
18190;SDS011;47004;51.366;12.348;2023-07-31T08:52:45;6.57;;;2.20;;
18190;SDS011;47004;51.366;12.348;2023-07-31T08:54:47;5.23;;;2.23;;
18190;SDS011;47004;51.366;12.348;2023-07-31T08:56:49;7.53;;;2.13;;
18190;SDS011;47004;51.366;12.348;2023-07-31T08:58:53;6.17;;;2.53;;
18190;SDS011;47004;51.366;12.348;2023-07-31T09:00:56;4.67;;;2.53;;
18190;SDS011;47004;51.366;12.348;2023-07-31T09:03:01;4.63;;;2.30;;
18190;SDS011;47004;51.366;12.348;2023-07-31T09:05:08;6.17;;;2.33;;
18190;SDS011;47004;51.366;12.348;2023-07-31T09:07:12;8.20;;;2.70;;
18190;SDS011;47004;51.366;12.348;2023-07-31T09:09:15;8.10;;;2.20;;
18190;SDS011;47004;51.366;12.348;2023-07-31T09:11:17;6.13;;;2.10;;
18190;SDS011;47004;51.366;12.348;2023-07-31T09:13:19;5.97;;;2.00;;
18190;SDS011;47004;51.366;12.348;2023-07-31T09:15:21;4.03;;;2.10;;
18190;SDS011;47004;51.366;12.348;2023-07-31T09:17:30;5.77;;;2.30;;
18190;SDS011;47004;51.366;12.348;2023-07-31T09:19:34;5.27;;;2.33;;
18190;SDS011;47004;51.366;12.348;2023-07-31T09:21:42;3.33;;;2.20;;
18190;SDS011;47004;51.366;12.348;2023-07-31T09:23:49;5.13;;;2.40;;
18190;SDS011;47004;51.366;12.348;2023-07-31T09:25:54;8.90;;;2.47;;
18190;SDS011;47004;51.366;12.348;2023-07-31T09:27:57;6.20;;;2.00;;
18190;SDS011;47004;51.366;12.348;2023-07-31T09:29:59;4.83;;;2.57;;
18190;SDS011;47004;51.366;12.348;2023-07-31T09:32:01;4.40;;;2.13;;
18190;SDS011;47004;51.366;12.348;2023-07-31T09:34:03;5.10;;;2.47;;
18190;SDS011;47004;51.366;12.348;2023-07-31T09:36:06;5.40;;;2.30;;
18190;SDS011;47004;51.366;12.348;2023-07-31T09:38:09;4.87;;;1.90;;
18190;SDS011;47004;51.366;12.348;2023-07-31T09:40:12;4.30;;;2.50;;
18190;SDS011;47004;51.366;12.348;2023-07-31T09:42:26;3.90;;;1.87;;
18190;SDS011;47004;51.366;12.348;2023-07-31T09:44:38;5.87;;;2.30;;
18190;SDS011;47004;51.366;12.348;2023-07-31T09:46:41;5.10;;;2.10;;
18190;SDS011;47004;51.366;12.348;2023-07-31T09:48:43;6.43;;;3.47;;
18190;SDS011;47004;51.366;12.348;2023-07-31T09:50:46;6.77;;;3.30;;
18190;SDS011;47004;51.366;12.348;2023-07-31T09:52:50;5.37;;;2.27;;
18190;SDS011;47004;51.366;12.348;2023-07-31T09:54:52;6.87;;;2.60;;
18190;SDS011;47004;51.366;12.348;2023-07-31T09:56:54;5.30;;;2.23;;
18190;SDS011;47004;51.366;12.348;2023-07-31T09:58:58;4.37;;;2.37;;
18190;SDS011;47004;51.366;12.348;2023-07-31T10:01:00;6.80;;;2.20;;
18190;SDS011;47004;51.366;12.348;2023-07-31T10:03:04;5.87;;;2.10;;
18190;SDS011;47004;51.366;12.348;2023-07-31T10:05:07;6.47;;;2.93;;
18190;SDS011;47004;51.366;12.348;2023-07-31T10:07:08;5.40;;;2.30;;
18190;SDS011;47004;51.366;12.348;2023-07-31T10:09:13;4.93;;;2.30;;
18190;SDS011;47004;51.366;12.348;2023-07-31T10:11:19;4.73;;;2.50;;
18190;SDS011;47004;51.366;12.348;2023-07-31T10:13:22;4.40;;;2.30;;
18190;SDS011;47004;51.366;12.348;2023-07-31T10:15:25;6.47;;;2.37;;
18190;SDS011;47004;51.366;12.348;2023-07-31T10:17:27;2.60;;;2.07;;
18190;SDS011;47004;51.366;12.348;2023-07-31T10:19:30;4.60;;;2.20;;
18190;SDS011;47004;51.366;12.348;2023-07-31T10:21:33;3.53;;;2.00;;
18190;SDS011;47004;51.366;12.348;2023-07-31T10:23:37;4.03;;;2.60;;
18190;SDS011;47004;51.366;12.348;2023-07-31T10:25:41;6.37;;;2.47;;
18190;SDS011;47004;51.366;12.348;2023-07-31T10:27:45;4.10;;;2.27;;
18190;SDS011;47004;51.366;12.348;2023-07-31T10:29:48;7.07;;;2.80;;
18190;SDS011;47004;51.366;12.348;2023-07-31T10:31:51;6.67;;;4.47;;
18190;SDS011;47004;51.366;12.348;2023-07-31T10:33:55;5.30;;;2.60;;
18190;SDS011;47004;51.366;12.348;2023-07-31T10:36:14;6.50;;;2.30;;
18190;SDS011;47004;51.366;12.348;2023-07-31T10:38:18;5.93;;;2.67;;
18190;SDS011;47004;51.366;12.348;2023-07-31T10:40:23;6.10;;;2.40;;
18190;SDS011;47004;51.366;12.348;2023-07-31T10:42:31;8.03;;;2.50;;
18190;SDS011;47004;51.366;12.348;2023-07-31T10:44:34;6.43;;;2.40;;
18190;SDS011;47004;51.366;12.348;2023-07-31T10:46:36;6.17;;;2.40;;
18190;SDS011;47004;51.366;12.348;2023-07-31T10:48:38;7.63;;;2.73;;
18190;SDS011;47004;51.366;12.348;2023-07-31T10:50:46;6.37;;;2.80;;
18190;SDS011;47004;51.366;12.348;2023-07-31T10:52:50;5.07;;;2.60;;
18190;SDS011;47004;51.366;12.348;2023-07-31T10:57:19;6.13;;;2.20;;
18190;SDS011;47004;51.366;12.348;2023-07-31T10:59:27;3.30;;;2.30;;
18190;SDS011;47004;51.366;12.348;2023-07-31T11:01:50;4.53;;;2.20;;
18190;SDS011;47004;51.366;12.348;2023-07-31T11:03:56;10.80;;;2.30;;
18190;SDS011;47004;51.366;12.348;2023-07-31T11:06:01;4.17;;;2.23;;
18190;SDS011;47004;51.366;12.348;2023-07-31T11:08:09;6.67;;;2.30;;
18190;SDS011;47004;51.366;12.348;2023-07-31T11:10:11;6.23;;;2.20;;
18190;SDS011;47004;51.366;12.348;2023-07-31T11:12:16;5.27;;;2.60;;
18190;SDS011;47004;51.366;12.348;2023-07-31T11:14:19;5.77;;;2.53;;
18190;SDS011;47004;51.366;12.348;2023-07-31T11:16:23;3.63;;;2.03;;
18190;SDS011;47004;51.366;12.348;2023-07-31T11:18:26;3.97;;;2.10;;
18190;SDS011;47004;51.366;12.348;2023-07-31T11:20:28;4.17;;;2.30;;
18190;SDS011;47004;51.366;12.348;2023-07-31T11:22:30;5.03;;;2.30;;
18190;SDS011;47004;51.366;12.348;2023-07-31T11:24:32;5.50;;;2.53;;
18190;SDS011;47004;51.366;12.348;2023-07-31T11:26:35;4.53;;;2.13;;
18190;SDS011;47004;51.366;12.348;2023-07-31T11:28:37;4.90;;;2.30;;
18190;SDS011;47004;51.366;12.348;2023-07-31T11:30:43;6.53;;;2.30;;
18190;SDS011;47004;51.366;12.348;2023-07-31T11:32:47;6.27;;;2.40;;
18190;SDS011;47004;51.366;12.348;2023-07-31T11:34:53;5.57;;;2.20;;
18190;SDS011;47004;51.366;12.348;2023-07-31T11:36:55;5.30;;;2.40;;
18190;SDS011;47004;51.366;12.348;2023-07-31T11:39:04;4.70;;;2.40;;
18190;SDS011;47004;51.366;12.348;2023-07-31T11:41:06;4.57;;;2.30;;
18190;SDS011;47004;51.366;12.348;2023-07-31T11:43:08;2.70;;;1.93;;
18190;SDS011;47004;51.366;12.348;2023-07-31T11:45:11;6.33;;;2.40;;
18190;SDS011;47004;51.366;12.348;2023-07-31T11:47:14;8.20;;;2.40;;
18190;SDS011;47004;51.366;12.348;2023-07-31T11:49:19;4.17;;;2.33;;
18190;SDS011;47004;51.366;12.348;2023-07-31T11:51:22;5.20;;;2.10;;
18190;SDS011;47004;51.366;12.348;2023-07-31T11:53:25;5.30;;;2.33;;
18190;SDS011;47004;51.366;12.348;2023-07-31T11:55:31;6.30;;;2.40;;
18190;SDS011;47004;51.366;12.348;2023-07-31T11:57:33;8.17;;;2.60;;
18190;SDS011;47004;51.366;12.348;2023-07-31T11:59:37;5.67;;;2.50;;
18190;SDS011;47004;51.366;12.348;2023-07-31T12:01:40;4.40;;;2.17;;
18190;SDS011;47004;51.366;12.348;2023-07-31T12:03:43;6.13;;;2.30;;
18190;SDS011;47004;51.366;12.348;2023-07-31T12:05:48;4.03;;;2.33;;
18190;SDS011;47004;51.366;12.348;2023-07-31T12:07:50;5.77;;;2.37;;
18190;SDS011;47004;51.366;12.348;2023-07-31T12:09:53;9.20;;;3.00;;
18190;SDS011;47004;51.366;12.348;2023-07-31T12:11:55;4.77;;;2.53;;
18190;SDS011;47004;51.366;12.348;2023-07-31T12:13:56;4.43;;;2.23;;